Time;durP1;ratioP1;P1;durP2;ratioP2;P2;SDS_P1;SDS_P2;PMS_P1;PMS_P2;Temp;Humidity;BMP_temperature;BMP_pressure;BME280_temperature;BME280_humidity;BME280_pressure;Samples;Min_cycle;Max_cycle;Signal;HPM_P1;HPM_P2
2022/04/20 00:00:28;;;;;;;3.17;1.90;;;19.50;58.80;;;;;;5028184;28;20274;-58
2022/04/20 00:03:00;;;;;;;6.03;2.10;;;19.60;58.80;;;;;;5027869;28;20247;-58
2022/04/20 00:05:33;;;;;;;4.10;2.28;;;19.60;59.70;;;;;;5029172;28;20254;-58
2022/04/20 00:08:04;;;;;;;6.10;2.33;;;19.60;61.00;;;;;;5027187;28;21154;-57
2022/04/20 00:10:34;;;;;;;4.28;2.33;;;19.60;62.00;;;;;;5027844;28;20232;-57
2022/04/20 00:13:05;;;;;;;4.55;2.28;;;19.70;62.50;;;;;;5027451;28;20205;-58
2022/04/20 00:15:36;;;;;;;7.63;2.30;;;19.80;62.80;;;;;;5028365;28;20224;-58
2022/04/20 00:18:08;;;;;;;4.90;2.20;;;19.80;63.00;;;;;;5028050;28;20537;-58
2022/04/20 00:20:39;;;;;;;5.85;2.38;;;19.90;63.00;;;;;;5028977;22;20665;-58
2022/04/20 00:23:09;;;;;;;4.90;2.30;;;20.00;63.30;;;;;;5006637;28;20220;-57
2022/04/20 00:25:40;;;;;;;4.47;2.22;;;20.00;63.30;;;;;;5007314;28;20750;-58
2022/04/20 00:28:10;;;;;;;5.68;2.42;;;20.00;63.40;;;;;;5008415;28;20197;-57
2022/04/20 00:30:41;;;;;;;5.72;2.85;;;20.10;63.50;;;;;;5007141;28;20286;-58
2022/04/20 00:33:13;;;;;;;5.45;2.50;;;20.10;63.70;;;;;;5005600;28;20266;-58
2022/04/20 00:35:45;;;;;;;6.43;2.42;;;20.20;63.80;;;;;;5006911;28;20971;-58
2022/04/20 00:38:16;;;;;;;5.22;2.58;;;20.30;63.90;;;;;;5008792;28;20197;-58
2022/04/20 00:40:47;;;;;;;4.70;2.15;;;20.30;64.00;;;;;;5008595;28;20193;-58
2022/04/20 00:43:18;;;;;;;6.93;2.30;;;20.40;64.40;;;;;;5008965;28;20216;-59
2022/04/20 00:45:49;;;;;;;5.93;2.40;;;20.40;64.70;;;;;;5008447;28;20209;-58
2022/04/20 00:48:23;;;;;;;4.40;2.25;;;20.50;64.90;;;;;;5008094;28;20193;-58
2022/04/20 00:50:53;;;;;;;6.80;2.40;;;20.50;65.00;;;;;;5008299;28;20274;-58
2022/04/20 00:53:24;;;;;;;6.07;2.50;;;20.60;65.20;;;;;;5008245;28;20201;-57
2022/04/20 00:55:54;;;;;;;6.10;2.38;;;20.70;65.30;;;;;;5007610;28;20243;-57
2022/04/20 00:58:25;;;;;;;5.95;2.58;;;20.70;65.60;;;;;;5007754;28;20314;-57
2022/04/20 01:00:55;;;;;;;5.85;2.60;;;20.80;65.80;;;;;;5008136;28;20193;-58
2022/04/20 01:03:28;;;;;;;5.65;2.53;;;20.90;66.00;;;;;;5006867;28;20220;-58
2022/04/20 01:05:59;;;;;;;5.65;2.35;;;20.90;66.10;;;;;;5008784;28;20244;-57
2022/04/20 01:08:32;;;;;;;4.90;2.45;;;21.00;66.10;;;;;;5008316;28;20279;-58
2022/04/20 01:11:02;;;;;;;6.68;2.30;;;21.00;66.00;;;;;;5008638;28;20247;-58
2022/04/20 01:13:33;;;;;;;6.07;2.25;;;21.10;65.90;;;;;;5008465;28;20254;-59
2022/04/20 01:16:04;;;;;;;6.57;2.60;;;21.10;65.80;;;;;;5008199;28;20245;-58
2022/04/20 01:18:43;;;;;;;6.43;2.42;;;21.30;65.90;;;;;;5008180;28;20229;-58
2022/04/20 01:21:16;;;;;;;6.07;2.38;;;21.30;65.70;;;;;;5021845;22;20236;-58
2022/04/20 01:23:46;;;;;;;7.20;2.33;;;21.40;65.70;;;;;;5011671;28;20299;-58
2022/04/20 01:26:17;;;;;;;5.88;2.60;;;21.40;65.50;;;;;;5009636;28;20291;-58
2022/04/20 01:28:50;;;;;;;5.63;2.53;;;21.50;65.50;;;;;;5012631;28;20189;-59
2022/04/20 01:31:21;;;;;;;8.65;2.72;;;21.50;65.20;;;;;;5010019;28;20252;-58
2022/04/20 01:33:51;;;;;;;5.45;2.50;;;21.60;65.20;;;;;;5011768;28;20278;-58
2022/04/20 01:36:23;;;;;;;7.25;2.65;;;21.60;65.10;;;;;;5010930;28;20244;-58
2022/04/20 01:38:54;;;;;;;6.43;2.78;;;21.70;65.10;;;;;;5011631;28;20247;-58
2022/04/20 01:41:24;;;;;;;6.60;2.30;;;21.80;65.00;;;;;;5010893;28;20243;-58
2022/04/20 01:43:55;;;;;;;3.95;1.63;;;21.80;64.80;;;;;;5011680;28;20995;-58
2022/04/20 01:46:26;;;;;;;1.20;0.95;;;21.90;64.40;;;;;;5011264;28;20252;-58
2022/04/20 01:48:56;;;;;;;2.55;0.93;;;21.90;63.60;;;;;;5012479;28;20228;-58
2022/04/20 01:54:15;;;;;;;2.22;0.70;;;22.00;62.30;;;;;;5011910;28;20216;-58
2022/04/20 01:56:46;;;;;;;0.80;0.50;;;22.10;61.90;;;;;;5012157;28;20217;-58
2022/04/20 01:59:17;;;;;;;2.15;0.63;;;22.20;61.60;;;;;;5010218;28;20221;-57
2022/04/20 02:04:34;;;;;;;0.75;0.30;;;22.30;60.80;;;;;;5010787;28;20197;-58
2022/04/20 02:07:07;;;;;;;0.70;0.30;;;22.40;60.40;;;;;;5010500;28;20280;-58
2022/04/20 02:09:37;;;;;;;2.58;0.40;;;22.40;60.10;;;;;;5010680;28;20189;-58
2022/04/20 02:12:08;;;;;;;0.50;0.47;;;22.50;60.00;;;;;;5010880;28;20189;-58
2022/04/20 02:14:39;;;;;;;0.20;0.20;;;22.60;59.80;;;;;;5010141;28;20260;-57
2022/04/20 02:17:09;;;;;;;0.20;0.20;;;22.70;59.60;;;;;;5011009;28;20193;-57
2022/04/20 02:19:40;;;;;;;0.40;0.40;;;22.70;59.30;;;;;;5011238;28;20255;-57
2022/04/20 02:22:12;;;;;;;1.05;0.30;;;22.80;59.10;;;;;;5010301;28;20271;-58
2022/04/20 02:24:43;;;;;;;0.82;0.30;;;22.90;58.80;;;;;;5009068;28;20189;-55
2022/04/20 02:27:14;;;;;;;0.55;0.20;;;22.90;58.60;;;;;;5008661;28;20306;-58
2022/04/20 02:29:44;;;;;;;0.20;0.20;;;23.00;58.30;;;;;;5010944;28;20204;-57
2022/04/20 02:32:15;;;;;;;2.20;0.20;;;23.00;58.00;;;;;;5010153;28;20197;-58
2022/04/20 02:34:45;;;;;;;0.60;0.20;;;23.10;57.70;;;;;;5010160;28;20220;-57
2022/04/20 02:37:18;;;;;;;1.20;0.20;;;23.10;57.40;;;;;;5010526;28;20193;-57
2022/04/20 02:39:49;;;;;;;0.30;0.30;;;23.20;57.30;;;;;;5011117;28;20223;-58
2022/04/20 02:42:20;;;;;;;2.10;0.52;;;23.30;57.00;;;;;;5010456;28;20564;-59
2022/04/20 02:44:51;;;;;;;1.05;0.22;;;23.30;56.90;;;;;;5009414;28;20209;-58
2022/04/20 02:47:22;;;;;;;0.20;0.20;;;23.40;56.80;;;;;;5011267;28;20220;-59
2022/04/20 02:49:52;;;;;;;0.57;0.30;;;23.40;56.70;;;;;;5011959;28;20774;-61
2022/04/20 02:52:25;;;;;;;0.20;0.20;;;23.50;56.50;;;;;;5010966;28;20197;-58
2022/04/20 02:54:55;;;;;;;0.40;0.20;;;23.50;56.40;;;;;;5010554;28;20583;-58
2022/04/20 02:57:26;;;;;;;0.68;0.30;;;23.50;56.30;;;;;;5009592;28;20201;-58
2022/04/20 02:59:56;;;;;;;0.40;0.20;;;23.60;56.20;;;;;;5008658;28;20251;-58
2022/04/20 03:02:27;;;;;;;0.43;0.20;;;23.60;56.00;;;;;;5008301;28;20304;-58
2022/04/20 03:04:57;;;;;;;0.47;0.30;;;23.60;55.90;;;;;;5009118;28;20688;-58
2022/04/20 03:07:30;;;;;;;1.00;0.50;;;23.70;55.90;;;;;;5009482;28;20216;-58
2022/04/20 03:10:00;;;;;;;0.63;0.22;;;23.70;55.70;;;;;;5009356;28;20193;-58
2022/04/20 03:12:31;;;;;;;0.68;0.30;;;23.70;55.70;;;;;;5010313;28;20609;-58
2022/04/20 03:15:02;;;;;;;0.47;0.30;;;23.70;55.70;;;;;;5009055;28;20205;-58
2022/04/20 03:17:32;;;;;;;1.13;0.17;;;23.70;55.70;;;;;;5009666;28;20247;-58
2022/04/20 03:30:29;;;;;;;0.38;0.20;;;23.80;55.50;;;;;;5147381;22;20958;-58
2022/04/20 03:33:00;;;;;;;1.20;0.25;;;23.80;55.50;;;;;;5007105;28;20591;-58
2022/04/20 03:35:30;;;;;;;0.88;0.30;;;23.90;55.70;;;;;;5007338;28;20217;-58
2022/04/20 03:38:01;;;;;;;0.32;0.28;;;23.80;56.30;;;;;;5009068;28;20193;-58
2022/04/20 03:40:31;;;;;;;1.08;0.20;;;23.80;55.80;;;;;;5009875;28;20197;-58
2022/04/20 03:43:02;;;;;;;1.35;0.30;;;23.90;56.00;;;;;;5009203;28;20613;-58
2022/04/20 03:45:34;;;;;;;2.50;0.40;;;23.90;56.10;;;;;;5009427;28;20213;-59
2022/04/20 03:48:06;;;;;;;0.43;0.30;;;23.90;56.10;;;;;;5009555;28;20225;-57
2022/04/20 03:50:36;;;;;;;0.20;0.20;;;23.90;56.10;;;;;;5008648;28;20567;-57
2022/04/20 03:53:07;;;;;;;0.47;0.20;;;23.90;56.30;;;;;;5009687;28;20256;-58
2022/04/20 03:55:37;;;;;;;1.65;0.20;;;23.90;56.30;;;;;;5007593;28;20213;-58
2022/04/20 03:58:08;;;;;;;0.20;0.20;;;23.90;56.30;;;;;;5009001;28;20288;-58
2022/04/20 04:00:40;;;;;;;0.73;0.40;;;23.90;56.40;;;;;;5008729;28;20724;-58
2022/04/20 04:03:11;;;;;;;0.47;0.30;;;23.90;56.50;;;;;;5009322;28;20232;-59
2022/04/20 04:05:42;;;;;;;0.57;0.30;;;23.90;56.50;;;;;;5009078;28;20263;-59
2022/04/20 04:08:12;;;;;;;0.38;0.30;;;23.90;56.60;;;;;;5009300;28;20235;-59
2022/04/20 04:10:43;;;;;;;0.60;0.40;;;23.90;56.70;;;;;;5009841;28;20228;-57
2022/04/20 04:13:14;;;;;;;0.35;0.30;;;23.90;56.70;;;;;;5008548;28;20314;-59
2022/04/20 04:15:47;;;;;;;0.40;0.30;;;23.90;56.80;;;;;;5008497;28;20274;-58
2022/04/20 04:18:17;;;;;;;1.08;0.40;;;23.80;56.80;;;;;;5008272;28;20189;-59
2022/04/20 04:20:48;;;;;;;0.57;0.35;;;23.80;56.90;;;;;;5008498;28;20224;-57
2022/04/20 04:23:20;;;;;;;0.40;0.40;;;23.80;56.90;;;;;;5008987;28;20540;-58
2022/04/20 04:25:51;;;;;;;0.40;0.30;;;23.80;56.90;;;;;;5005969;28;20224;-58
2022/04/20 04:28:21;;;;;;;0.30;0.30;;;23.80;56.90;;;;;;5008595;28;20243;-59
2022/04/20 04:30:54;;;;;;;0.47;0.38;;;23.80;56.80;;;;;;5007778;28;20571;-59
2022/04/20 04:33:24;;;;;;;0.55;0.20;;;23.80;56.90;;;;;;5005510;28;20252;-59
2022/04/20 04:35:55;;;;;;;0.35;0.32;;;23.80;56.90;;;;;;5008918;28;20217;-58
2022/04/20 04:38:25;;;;;;;0.38;0.38;;;23.80;56.90;;;;;;5008698;28;20247;-61
2022/04/20 04:40:56;;;;;;;0.60;0.30;;;23.80;56.90;;;;;;5008803;28;20243;-60
2022/04/20 04:43:27;;;;;;;0.60;0.30;;;23.80;56.90;;;;;;5009277;28;20201;-58
2022/04/20 04:48:48;;;;;;;0.70;0.30;;;23.80;57.00;;;;;;5008874;28;20426;-60
2022/04/20 04:51:19;;;;;;;2.35;0.32;;;23.80;57.10;;;;;;5006794;28;20197;-59
2022/04/20 04:53:49;;;;;;;0.35;0.20;;;23.80;57.10;;;;;;5008901;28;20221;-60
2022/04/20 04:56:20;;;;;;;0.75;0.30;;;23.80;57.10;;;;;;5010598;28;20212;-59
2022/04/20 04:58:50;;;;;;;0.68;0.40;;;23.80;57.10;;;;;;5011407;28;20246;-58
2022/04/20 05:01:23;;;;;;;0.45;0.30;;;23.80;57.00;;;;;;5012431;28;20203;-58
2022/04/20 05:03:54;;;;;;;1.02;0.40;;;23.80;57.10;;;;;;5012595;28;20201;-60
2022/04/20 05:06:25;;;;;;;0.30;0.30;;;23.80;57.70;;;;;;5011647;28;20222;-58
2022/04/20 05:08:55;;;;;;;0.38;0.20;;;23.70;57.10;;;;;;5011696;28;20279;-60
2022/04/20 05:11:26;;;;;;;0.30;0.30;;;23.70;57.20;;;;;;5012750;28;20228;-59
2022/04/20 05:13:56;;;;;;;0.63;0.50;;;23.70;57.20;;;;;;5012150;28;20230;-59
2022/04/20 05:16:29;;;;;;;0.43;0.43;;;23.70;57.20;;;;;;5012390;28;20366;-60
2022/04/20 05:18:59;;;;;;;0.45;0.40;;;23.70;57.20;;;;;;5011730;28;20193;-59
2022/04/20 05:52:44;;;;;;;1.60;0.70;;;23.70;57.20;;;;;;6033465;22;20175;-59
2022/04/20 05:55:17;;;;;;;1.38;0.70;;;23.70;57.30;;;;;;4975719;28;20309;-58
2022/04/20 05:57:49;;;;;;;2.13;0.90;;;23.70;57.30;;;;;;4991087;28;20194;-58
2022/04/20 06:00:20;;;;;;;0.93;0.60;;;23.70;57.30;;;;;;4989418;28;20216;-58
2022/04/20 06:02:51;;;;;;;0.88;0.63;;;23.70;57.30;;;;;;4989297;28;20248;-58
2022/04/20 06:05:22;;;;;;;1.60;0.60;;;23.60;57.30;;;;;;4991676;28;20221;-58
2022/04/20 06:07:55;;;;;;;0.98;0.60;;;23.60;57.30;;;;;;4991164;28;20205;-58
2022/04/20 06:10:26;;;;;;;1.58;0.68;;;23.60;57.30;;;;;;4991162;28;20190;-57
2022/04/20 06:12:56;;;;;;;1.73;0.73;;;23.60;57.30;;;;;;4991247;28;20605;-58
2022/04/20 06:15:27;;;;;;;1.33;0.65;;;23.60;57.30;;;;;;4990687;28;20276;-58
2022/04/20 06:17:57;;;;;;;1.48;0.80;;;23.60;57.30;;;;;;4991474;28;20229;-58
2022/04/20 06:20:28;;;;;;;1.20;0.68;;;23.60;57.30;;;;;;5006988;23;20359;-57
2022/04/20 06:23:00;;;;;;;1.27;0.50;;;23.60;57.30;;;;;;5010294;28;20286;-59
2022/04/20 06:25:31;;;;;;;0.80;0.50;;;23.50;57.20;;;;;;5012451;28;20216;-59
2022/04/20 06:28:02;;;;;;;1.15;0.90;;;23.60;57.30;;;;;;5029782;28;20208;-59
2022/04/20 06:30:33;;;;;;;0.73;0.73;;;23.50;57.20;;;;;;5030421;28;20211;-59
2022/04/20 06:33:03;;;;;;;1.95;0.80;;;23.50;57.20;;;;;;5029744;28;20227;-58
2022/04/20 06:35:34;;;;;;;1.17;0.60;;;23.50;57.20;;;;;;5030332;28;20252;-59
2022/04/20 06:38:07;;;;;;;0.90;0.70;;;23.50;57.10;;;;;;5029792;28;20869;-59
2022/04/20 06:40:37;;;;;;;1.20;0.60;;;23.50;57.10;;;;;;5030289;28;20207;-59
2022/04/20 06:43:08;;;;;;;1.08;0.80;;;23.50;57.20;;;;;;5029669;28;20196;-59
2022/04/20 06:45:39;;;;;;;1.65;0.82;;;23.50;57.20;;;;;;5029770;28;20227;-59
2022/04/20 06:48:09;;;;;;;1.63;1.00;;;23.50;57.20;;;;;;5029872;28;20682;-59
2022/04/20 06:50:42;;;;;;;1.05;0.82;;;23.40;57.20;;;;;;5029636;28;20258;-59
2022/04/20 06:58:50;;;;;;;2.22;1.10;;;23.40;57.20;;;;;;5028845;28;20230;-59
2022/04/20 07:01:20;;;;;;;3.25;0.93;;;23.40;57.20;;;;;;5029708;28;20212;-59
2022/04/20 07:03:51;;;;;;;2.45;1.27;;;23.40;57.20;;;;;;5029244;28;20337;-59
2022/04/20 07:06:22;;;;;;;2.88;1.20;;;23.40;57.20;;;;;;5029199;28;20628;-59
2022/04/20 07:08:56;;;;;;;2.50;1.05;;;23.40;57.20;;;;;;5030248;28;20220;-59
2022/04/20 07:11:28;;;;;;;3.63;1.40;;;23.40;57.30;;;;;;5029920;28;20604;-59
2022/04/20 07:13:58;;;;;;;1.50;1.20;;;23.40;57.30;;;;;;5030200;28;20307;-59
2022/04/20 07:16:29;;;;;;;1.23;1.13;;;23.40;57.30;;;;;;5030552;28;20676;-59
2022/04/20 07:18:59;;;;;;;1.70;1.17;;;23.40;57.30;;;;;;5029258;28;20554;-59
2022/04/20 07:21:31;;;;;;;2.55;1.10;;;23.30;57.30;;;;;;5017061;28;20235;-59
2022/04/20 07:24:03;;;;;;;2.67;1.45;;;23.30;57.20;;;;;;5012916;28;20209;-59
2022/04/20 07:26:34;;;;;;;1.33;1.05;;;23.30;57.30;;;;;;5012780;28;20279;-58
2022/04/20 07:29:04;;;;;;;2.38;1.25;;;23.30;57.20;;;;;;5012521;28;20205;-59
2022/04/20 07:31:35;;;;;;;1.90;1.02;;;23.30;57.30;;;;;;5012551;28;20201;-59
2022/04/20 07:34:05;;;;;;;1.17;1.08;;;23.30;57.30;;;;;;5012507;28;20291;-59
2022/04/20 07:36:36;;;;;;;2.40;1.20;;;23.30;57.30;;;;;;5011899;28;20217;-59
2022/04/20 07:39:08;;;;;;;2.38;1.17;;;23.30;57.40;;;;;;5012540;28;20193;-59
2022/04/20 07:41:39;;;;;;;2.47;1.27;;;23.30;57.40;;;;;;5012658;28;20196;-59
2022/04/20 07:44:10;;;;;;;2.22;1.35;;;23.20;57.30;;;;;;5012661;28;20564;-59
2022/04/20 07:46:40;;;;;;;3.05;1.48;;;23.20;57.30;;;;;;5012246;28;20224;-59
2022/04/20 07:51:54;;;;;;;3.17;1.30;;;23.20;57.30;;;;;;4999509;28;20228;-59
2022/04/20 07:54:27;;;;;;;2.08;1.10;;;23.20;57.30;;;;;;5011800;28;20224;-59
2022/04/20 07:56:57;;;;;;;2.65;1.25;;;23.20;57.30;;;;;;5012011;28;20564;-59
2022/04/20 07:59:28;;;;;;;2.67;1.17;;;23.20;57.30;;;;;;5012264;28;20196;-58
2022/04/20 08:01:58;;;;;;;2.00;1.15;;;23.20;57.30;;;;;;5011702;28;20250;-58
2022/04/20 08:04:29;;;;;;;1.40;1.00;;;23.20;57.30;;;;;;5011461;28;20196;-58
2022/04/20 08:07:00;;;;;;;1.77;1.17;;;23.20;57.30;;;;;;5011729;28;20205;-59
2022/04/20 08:09:32;;;;;;;3.08;1.35;;;23.10;57.30;;;;;;5012207;28;20193;-59
2022/04/20 08:12:02;;;;;;;2.45;1.10;;;23.10;57.30;;;;;;5012028;28;20200;-59
2022/04/20 08:14:33;;;;;;;2.13;1.10;;;23.10;57.40;;;;;;5011714;28;20224;-58
2022/04/20 08:17:04;;;;;;;2.90;1.30;;;23.10;57.40;;;;;;5012299;28;20246;-59
2022/04/20 08:19:34;;;;;;;2.65;1.02;;;23.10;57.40;;;;;;5011280;28;20283;-58
2022/04/20 08:22:05;;;;;;;2.55;1.10;;;23.10;57.40;;;;;;4996755;23;20230;-61
2022/04/20 08:24:38;;;;;;;1.40;1.08;;;23.10;57.40;;;;;;4973979;28;20578;-59
2022/04/20 08:27:08;;;;;;;1.60;1.05;;;23.10;57.40;;;;;;4991922;28;20197;-60
2022/04/20 08:29:39;;;;;;;2.38;1.33;;;23.10;57.40;;;;;;4991534;28;20201;-58
2022/04/20 08:32:10;;;;;;;1.92;1.10;;;23.10;57.40;;;;;;4992173;28;20296;-59
2022/04/20 08:34:41;;;;;;;1.88;1.00;;;23.10;57.40;;;;;;4991439;28;20224;-59
2022/04/20 08:37:11;;;;;;;3.13;1.10;;;23.10;57.40;;;;;;4991561;28;20268;-58
2022/04/20 08:39:44;;;;;;;2.63;1.00;;;23.00;57.40;;;;;;4991625;28;20294;-60
2022/04/20 08:42:16;;;;;;;0.77;0.73;;;23.00;57.50;;;;;;4991788;28;20201;-59
2022/04/20 08:44:50;;;;;;;1.10;0.82;;;23.00;57.60;;;;;;4991655;28;20225;-59
2022/04/20 08:47:23;;;;;;;1.85;1.10;;;23.00;57.70;;;;;;4994995;28;20196;-58
2022/04/20 08:49:55;;;;;;;1.75;1.10;;;23.00;57.70;;;;;;5007528;28;20189;-58
2022/04/20 08:52:42;;;;;;;1.27;1.00;;;23.00;57.70;;;;;;5008120;28;20280;-58
2022/04/20 08:55:16;;;;;;;1.63;0.90;;;23.00;57.60;;;;;;5008710;28;20229;-59
2022/04/20 08:57:48;;;;;;;1.73;0.95;;;23.00;57.60;;;;;;5008747;28;20258;-59
2022/04/20 09:00:22;;;;;;;1.48;1.00;;;23.00;57.60;;;;;;5008238;28;20201;-59
2022/04/20 09:02:55;;;;;;;1.23;0.90;;;23.00;57.60;;;;;;5008813;28;20200;-59
2022/04/20 09:05:27;;;;;;;1.55;0.88;;;23.00;57.60;;;;;;5008469;28;20231;-59
2022/04/20 09:07:58;;;;;;;1.50;0.88;;;23.00;57.60;;;;;;5008927;28;20653;-58
2022/04/20 09:10:30;;;;;;;0.90;0.80;;;23.00;57.60;;;;;;5008864;28;20192;-59
2022/04/20 09:13:08;;;;;;;1.98;0.90;;;22.90;57.50;;;;;;5006748;28;20270;-58
2022/04/20 09:15:40;;;;;;;0.88;0.63;;;22.90;57.60;;;;;;5008571;28;20291;-59
2022/04/20 09:18:12;;;;;;;1.00;0.73;;;22.90;57.50;;;;;;5007477;28;20255;-58
2022/04/20 10:20:23;;;;;;;1.55;0.80;;;22.70;57.40;;;;;;6009255;22;20191;-59
2022/04/20 10:22:56;;;;;;;1.10;0.70;;;22.70;57.40;;;;;;5009624;28;20192;-58
2022/04/20 10:25:27;;;;;;;1.27;0.60;;;22.70;57.40;;;;;;5007726;28;20231;-58
2022/04/20 10:28:09;;;;;;;0.90;0.60;;;22.70;57.40;;;;;;5011387;28;20200;-58
2022/04/20 10:31:18;;;;;;;0.77;0.70;;;22.70;57.40;;;;;;5010455;28;20622;-59
2022/04/20 10:33:49;;;;;;;1.30;0.55;;;22.70;57.40;;;;;;5006808;28;20228;-58
2022/04/20 10:36:31;;;;;;;1.25;0.77;;;22.70;57.40;;;;;;5010169;28;20242;-58
2022/04/20 10:39:22;;;;;;;0.85;0.63;;;22.60;57.30;;;;;;5010818;28;20243;-59
2022/04/20 10:42:19;;;;;;;0.55;0.50;;;22.60;57.40;;;;;;5009119;28;20205;-58
2022/04/20 10:45:00;;;;;;;1.20;0.70;;;22.60;57.30;;;;;;5004366;28;20286;-58
2022/04/20 10:47:32;;;;;;;1.05;0.70;;;22.60;57.40;;;;;;5010783;28;20586;-58
2022/04/20 10:50:17;;;;;;;0.90;0.75;;;22.60;57.40;;;;;;5010438;28;20189;-58
2022/04/20 10:52:57;;;;;;;0.95;0.73;;;22.60;57.90;;;;;;5008250;28;20247;-58
2022/04/20 10:55:52;;;;;;;0.85;0.70;;;22.60;57.40;;;;;;5010561;28;20228;-58
2022/04/20 10:58:24;;;;;;;1.05;0.70;;;22.60;57.40;;;;;;5009657;28;20189;-58
2022/04/20 11:01:12;;;;;;;0.85;0.73;;;22.60;57.40;;;;;;5010591;28;20267;-59
2022/04/20 11:04:08;;;;;;;1.30;0.77;;;22.60;57.40;;;;;;5009715;28;20233;-59
2022/04/20 11:07:15;;;;;;;0.95;0.70;;;22.50;57.40;;;;;;5008610;28;20225;-58
2022/04/20 11:10:05;;;;;;;1.30;0.77;;;22.50;57.40;;;;;;4998030;28;20197;-58
2022/04/20 11:18:42;;;;;;;0.88;0.60;;;22.50;57.40;;;;;;5009738;28;20195;-58
2022/04/20 11:21:30;;;;;;;1.00;0.80;;;22.50;57.40;;;;;;5006819;28;20606;-59
2022/04/20 11:24:03;;;;;;;1.40;0.60;;;22.50;57.40;;;;;;5010620;28;20204;-59
2022/04/20 11:26:41;;;;;;;0.65;0.60;;;22.50;57.40;;;;;;5008977;28;20878;-59
2022/04/20 11:29:18;;;;;;;0.75;0.60;;;22.50;57.40;;;;;;5009508;28;20201;-59
2022/04/20 11:31:50;;;;;;;0.85;0.73;;;22.50;57.40;;;;;;5009458;28;20197;-59
2022/04/20 11:34:22;;;;;;;0.93;0.50;;;22.50;57.40;;;;;;5009649;28;20192;-59
2022/04/20 11:36:53;;;;;;;0.95;0.70;;;22.50;57.40;;;;;;5001116;28;20272;-59
2022/04/20 11:39:25;;;;;;;0.45;0.40;;;22.40;57.40;;;;;;4993132;28;20661;-58
2022/04/20 11:41:58;;;;;;;0.63;0.60;;;22.40;57.50;;;;;;4992479;28;20198;-59
2022/04/20 11:44:31;;;;;;;0.68;0.60;;;22.40;57.50;;;;;;4991811;28;20650;-59
2022/04/20 11:47:04;;;;;;;0.80;0.60;;;22.40;57.40;;;;;;4991365;28;20259;-58
2022/04/20 11:49:36;;;;;;;1.27;0.63;;;22.40;57.50;;;;;;4991041;28;20194;-58
2022/04/20 11:52:11;;;;;;;1.15;0.70;;;22.40;57.80;;;;;;4991083;28;20201;-58
2022/04/20 11:54:43;;;;;;;0.73;0.70;;;22.40;57.50;;;;;;4991242;28;20197;-59
2022/04/20 11:57:15;;;;;;;0.65;0.65;;;22.40;57.40;;;;;;4991023;28;20289;-58
2022/04/20 11:59:47;;;;;;;0.50;0.50;;;22.40;57.50;;;;;;4990992;28;20645;-58
2022/04/20 12:02:19;;;;;;;1.00;0.68;;;22.40;57.50;;;;;;4990819;28;20237;-58
2022/04/20 12:04:50;;;;;;;1.38;0.82;;;22.40;57.50;;;;;;4989855;28;20216;-58
2022/04/20 12:07:20;;;;;;;0.77;0.70;;;22.40;57.50;;;;;;4990787;28;20660;-59
2022/04/20 12:09:54;;;;;;;1.08;0.80;;;22.40;57.50;;;;;;4991111;28;20780;-59
2022/04/20 12:12:27;;;;;;;0.75;0.60;;;22.40;57.50;;;;;;4990829;28;20255;-59
2022/04/20 12:15:08;;;;;;;1.13;0.63;;;22.40;57.50;;;;;;4990828;28;20253;-58
2022/04/20 12:17:39;;;;;;;0.80;0.70;;;22.30;57.40;;;;;;4990554;28;20185;-58
2022/04/20 12:20:12;;;;;;;1.20;0.90;;;22.30;57.40;;;;;;4991166;28;20197;-58
2022/04/20 12:22:44;;;;;;;0.50;0.50;;;22.30;57.40;;;;;;4990516;28;20688;-58
2022/04/20 12:25:19;;;;;;;0.70;0.63;;;22.30;57.40;;;;;;4989787;28;20886;-58
2022/04/20 12:27:55;;;;;;;1.38;0.50;;;22.40;57.40;;;;;;4991088;28;20677;-58
2022/04/20 12:30:45;;;;;;;0.90;0.63;;;22.30;57.40;;;;;;4990944;28;20232;-58
2022/04/20 12:33:24;;;;;;;0.50;0.50;;;22.30;57.40;;;;;;4990511;28;20193;-58
2022/04/20 12:36:07;;;;;;;1.08;0.40;;;22.30;57.40;;;;;;4990014;28;20260;-59
2022/04/20 12:38:51;;;;;;;0.60;0.60;;;22.30;57.40;;;;;;4990259;28;20194;-58
2022/04/20 12:41:41;;;;;;;0.70;0.60;;;22.30;57.40;;;;;;4990615;28;20280;-59
2022/04/20 12:44:53;;;;;;;0.70;0.50;;;22.30;57.50;;;;;;4990458;28;20209;-58
2022/04/20 12:47:39;;;;;;;0.85;0.73;;;22.20;57.40;;;;;;4990646;28;20229;-58
2022/04/20 12:50:36;;;;;;;1.05;0.75;;;22.20;57.40;;;;;;4990574;28;20202;-59
2022/04/20 12:53:08;;;;;;;0.70;0.65;;;22.20;57.50;;;;;;4990307;28;20197;-59
2022/04/20 12:55:41;;;;;;;0.60;0.55;;;22.20;57.40;;;;;;4990502;28;20233;-58
2022/04/20 13:03:52;;;;;;;0.57;0.55;;;22.20;57.40;;;;;;4990409;28;20248;-59
2022/04/20 13:06:23;;;;;;;0.70;0.60;;;22.20;57.40;;;;;;4990494;28;20221;-59
2022/04/20 13:08:54;;;;;;;0.63;0.60;;;22.20;57.40;;;;;;4990322;28;20720;-59
2022/04/20 13:11:24;;;;;;;0.73;0.63;;;22.20;57.40;;;;;;4990530;28;20229;-59
2022/04/20 13:13:55;;;;;;;0.70;0.60;;;22.10;57.40;;;;;;4989672;28;20255;-58
2022/04/20 13:16:27;;;;;;;0.45;0.45;;;22.10;57.40;;;;;;4989592;28;20260;-59
2022/04/20 13:18:59;;;;;;;0.95;0.65;;;22.10;57.40;;;;;;4994125;28;20193;-59
2022/04/20 13:21:30;;;;;;;0.93;0.70;;;22.10;57.40;;;;;;4994510;28;20296;-59
2022/04/20 13:24:00;;;;;;;0.70;0.60;;;22.10;57.40;;;;;;4993461;28;20265;-58
2022/04/20 13:29:17;;;;;;;1.05;0.55;;;22.10;57.50;;;;;;4994076;28;20597;-59
2022/04/20 13:31:49;;;;;;;0.60;0.60;;;22.00;57.50;;;;;;4993856;28;20229;-59
2022/04/20 13:34:20;;;;;;;0.85;0.68;;;22.00;57.40;;;;;;4993783;28;20259;-59
2022/04/20 13:36:50;;;;;;;0.93;0.50;;;22.00;57.50;;;;;;4993265;28;20268;-58
2022/04/20 13:39:21;;;;;;;1.55;0.70;;;22.00;57.50;;;;;;4993495;28;20642;-58
2022/04/20 13:41:51;;;;;;;0.47;0.45;;;22.00;57.50;;;;;;4993847;28;20257;-59
2022/04/20 13:44:22;;;;;;;0.88;0.60;;;22.00;57.50;;;;;;4994078;28;20229;-58
2022/04/20 13:46:54;;;;;;;0.50;0.50;;;22.00;57.50;;;;;;4993820;28;20249;-58
2022/04/20 13:49:25;;;;;;;0.88;0.60;;;22.00;57.50;;;;;;4993722;28;20751;-58
2022/04/20 13:51:56;;;;;;;1.38;0.73;;;22.00;57.50;;;;;;4993399;28;20201;-58
2022/04/20 13:54:26;;;;;;;0.65;0.50;;;21.90;57.40;;;;;;4993804;28;20268;-59
2022/04/20 13:56:57;;;;;;;0.60;0.50;;;21.90;57.50;;;;;;4993617;28;20229;-59
2022/04/20 13:59:27;;;;;;;0.65;0.65;;;22.00;57.50;;;;;;4993611;28;20201;-59
2022/04/20 14:02:00;;;;;;;0.88;0.57;;;21.90;57.40;;;;;;4993287;28;20291;-58
2022/04/20 14:04:30;;;;;;;0.73;0.50;;;21.90;57.40;;;;;;4993038;28;20256;-58
2022/04/20 14:07:01;;;;;;;1.38;0.70;;;21.90;57.50;;;;;;4992953;28;20292;-58
2022/04/20 14:09:31;;;;;;;0.82;0.50;;;21.90;57.40;;;;;;4993514;28;20201;-59
2022/04/20 14:12:02;;;;;;;0.57;0.50;;;21.90;57.40;;;;;;4993058;28;20205;-59
2022/04/20 14:14:33;;;;;;;0.60;0.60;;;21.90;57.50;;;;;;4993422;28;20272;-59
2022/04/20 14:17:06;;;;;;;0.60;0.60;;;21.90;57.50;;;;;;4992908;28;20257;-59
2022/04/20 14:19:40;;;;;;;1.13;0.70;;;21.80;57.50;;;;;;4992805;28;20283;-59
2022/04/20 15:21:51;;;;;;;0.70;0.52;;;21.60;58.10;;;;;;5515816;23;20577;-59
2022/04/20 15:24:22;;;;;;;0.75;0.50;;;21.60;58.10;;;;;;4998951;23;20873;-60
2022/04/20 15:26:52;;;;;;;0.32;0.32;;;21.60;57.50;;;;;;4991782;28;20217;-60
2022/04/20 15:29:23;;;;;;;0.35;0.35;;;21.60;57.50;;;;;;4991869;28;20201;-60
2022/04/20 15:31:56;;;;;;;1.13;0.60;;;21.60;57.50;;;;;;4991653;28;20743;-60
2022/04/20 15:34:27;;;;;;;0.57;0.55;;;21.50;57.50;;;;;;4990975;28;20653;-60
2022/04/20 15:37:05;;;;;;;0.77;0.60;;;21.60;57.50;;;;;;4991402;28;20323;-60
2022/04/20 15:39:35;;;;;;;0.47;0.47;;;21.50;57.50;;;;;;4990556;28;20193;-60
2022/04/20 15:42:06;;;;;;;0.40;0.40;;;21.50;57.50;;;;;;4991795;28;20202;-60
2022/04/20 15:44:37;;;;;;;0.85;0.57;;;21.50;57.50;;;;;;4991657;28;20742;-60
2022/04/20 15:47:08;;;;;;;0.40;0.40;;;21.50;57.50;;;;;;4991703;28;20197;-60
2022/04/20 15:49:38;;;;;;;0.50;0.50;;;21.50;57.50;;;;;;4991488;28;20197;-60
2022/04/20 15:52:11;;;;;;;0.32;0.32;;;21.50;57.50;;;;;;4991488;28;20248;-60
2022/04/20 15:54:42;;;;;;;0.40;0.40;;;21.50;57.50;;;;;;4990882;28;20190;-60
2022/04/20 16:00:19;;;;;;;0.45;0.40;;;21.40;57.60;;;;;;4991350;28;20232;-60
2022/04/20 16:02:52;;;;;;;0.40;0.40;;;21.40;57.50;;;;;;4991307;28;20763;-60
2022/04/20 16:05:24;;;;;;;0.45;0.45;;;21.40;57.50;;;;;;4991041;28;20239;-61
2022/04/20 16:07:56;;;;;;;0.75;0.57;;;21.40;57.60;;;;;;4990675;28;20201;-60
2022/04/20 16:10:27;;;;;;;0.40;0.40;;;21.40;57.60;;;;;;4989929;28;20194;-60
2022/04/20 16:12:57;;;;;;;0.75;0.60;;;21.40;57.60;;;;;;4991036;28;20778;-60
2022/04/20 16:15:28;;;;;;;0.40;0.40;;;21.30;58.10;;;;;;4991042;28;20222;-60
2022/04/20 16:17:59;;;;;;;0.50;0.50;;;21.40;57.60;;;;;;4991054;28;20779;-60
2022/04/20 16:20:29;;;;;;;0.45;0.40;;;21.40;57.60;;;;;;4991259;28;20193;-60
2022/04/20 16:23:02;;;;;;;0.40;0.40;;;21.30;57.50;;;;;;4990927;28;20201;-60
2022/04/20 16:25:32;;;;;;;0.40;0.38;;;21.30;57.50;;;;;;4990090;28;20328;-60
2022/04/20 16:28:03;;;;;;;0.57;0.47;;;21.30;57.50;;;;;;4990590;28;20271;-60
2022/04/20 16:30:35;;;;;;;0.50;0.50;;;21.30;57.60;;;;;;4991036;28;20900;-60